Time;durP1;ratioP1;P1;durP2;ratioP2;P2;SDS_P1;SDS_P2;PMS_P1;PMS_P2;Temp;Humidity;BMP_temperature;BMP_pressure;BME280_temperature;BME280_humidity;BME280_pressure;Samples;Min_cycle;Max_cycle;Signal;HPM_P1;HPM_P2
2021/11/27 00:01:52;;;;;;;4.70;4.30;;;;;;;;;;5136446;27;20224;-75
2021/11/27 00:04:20;;;;;;;5.22;4.72;;;;;;;;;;5136679;27;20228;-74
2021/11/27 00:06:47;;;;;;;4.72;4.28;;;;;;;;;;5135931;27;20825;-75
2021/11/27 00:09:15;;;;;;;4.75;4.45;;;;;;;;;;5135762;27;20727;-74
2021/11/27 00:11:42;;;;;;;4.85;4.35;;;;;;;;;;5135856;27;20288;-75
2021/11/27 00:14:11;;;;;;;4.68;3.78;;;;;;;;;;5136156;27;20289;-74
2021/11/27 00:16:38;;;;;;;5.00;4.30;;;;;;;;;;5135816;27;20197;-74
2021/11/27 00:19:11;;;;;;;4.43;3.80;;;;;;;;;;5136310;27;20283;-75
2021/11/27 00:21:38;;;;;;;4.15;3.85;;;;;;;;;;5136086;27;20251;-74
2021/11/27 00:24:06;;;;;;;4.13;3.83;;;;;;;;;;5135564;27;20316;-75
2021/11/27 00:26:33;;;;;;;4.55;4.20;;;;;;;;;;5135529;27;20292;-74
2021/11/27 00:29:00;;;;;;;4.10;3.75;;;;;;;;;;5135884;27;20231;-74
2021/11/27 00:31:29;;;;;;;6.00;4.43;;;;;;;;;;5135598;27;20617;-74
2021/11/27 00:33:57;;;;;;;3.75;3.45;;;;;;;;;;5135525;27;20194;-74
2021/11/27 00:36:26;;;;;;;3.75;3.38;;;;;;;;;;5136058;27;20199;-74
2021/11/27 00:38:53;;;;;;;4.10;3.60;;;;;;;;;;5135670;27;20287;-74
2021/11/27 00:41:21;;;;;;;4.32;3.92;;;;;;;;;;5135296;27;20195;-74
2021/11/27 00:43:48;;;;;;;4.68;3.30;;;;;;;;;;5135174;27;20299;-74
2021/11/27 00:46:15;;;;;;;5.28;3.60;;;;;;;;;;5135645;27;20680;-74
2021/11/27 00:48:43;;;;;;;6.30;4.85;;;;;;;;;;5135452;27;20289;-73
2021/11/27 00:51:11;;;;;;;4.13;3.83;;;;;;;;;;5135407;27;20194;-73
2021/11/27 00:53:40;;;;;;;4.40;4.10;;;;;;;;;;5135901;27;20280;-72
2021/11/27 00:56:08;;;;;;;4.32;4.03;;;;;;;;;;5135555;27;20287;-72
2021/11/27 00:58:35;;;;;;;4.13;3.80;;;;;;;;;;5136115;27;20241;-74
2021/11/27 01:01:03;;;;;;;3.85;3.55;;;;;;;;;;5135293;27;20223;-73
2021/11/27 01:03:33;;;;;;;4.72;3.20;;;;;;;;;;5134637;27;20314;-74
2021/11/27 01:06:01;;;;;;;4.35;3.95;;;;;;;;;;5135200;27;20230;-73
2021/11/27 01:08:29;;;;;;;4.40;4.00;;;;;;;;;;5135576;27;20283;-73
2021/11/27 01:10:59;;;;;;;4.38;3.80;;;;;;;;;;5135090;27;20275;-74
2021/11/27 01:13:26;;;;;;;4.63;4.22;;;;;;;;;;5135415;27;20275;-73
2021/11/27 01:15:54;;;;;;;3.90;3.60;;;;;;;;;;5134688;27;20197;-73
2021/11/27 01:18:21;;;;;;;3.80;3.53;;;;;;;;;;5134966;27;20284;-73
2021/11/27 01:20:51;;;;;;;3.90;3.60;;;;;;;;;;5134115;27;20239;-73
2021/11/27 01:23:18;;;;;;;4.35;3.95;;;;;;;;;;5134457;27;20302;-73
2021/11/27 01:25:46;;;;;;;4.22;3.92;;;;;;;;;;5134982;27;20198;-73
2021/11/27 01:28:15;;;;;;;3.60;3.30;;;;;;;;;;5135333;27;20296;-73
2021/11/27 01:30:43;;;;;;;5.38;4.15;;;;;;;;;;5134487;27;20279;-73
2021/11/27 01:33:10;;;;;;;3.83;3.45;;;;;;;;;;5134983;27;20313;-73
2021/11/27 01:35:38;;;;;;;3.78;3.47;;;;;;;;;;5134710;27;20237;-74
2021/11/27 01:38:06;;;;;;;3.63;3.33;;;;;;;;;;5135210;27;20286;-73
2021/11/27 01:40:33;;;;;;;5.20;3.70;;;;;;;;;;5134770;27;20198;-73
2021/11/27 01:43:00;;;;;;;3.20;3.00;;;;;;;;;;5134875;28;20213;-73
2021/11/27 01:45:29;;;;;;;5.68;3.80;;;;;;;;;;5134574;28;20192;-73
2021/11/27 01:47:58;;;;;;;3.55;3.28;;;;;;;;;;5134246;28;20280;-73
2021/11/27 01:50:27;;;;;;;3.08;2.88;;;;;;;;;;5134261;28;20231;-73
2021/11/27 01:52:54;;;;;;;3.42;3.22;;;;;;;;;;5134506;28;20344;-73
2021/11/27 01:55:22;;;;;;;3.65;3.35;;;;;;;;;;5134206;28;20288;-73
2021/11/27 01:57:49;;;;;;;3.53;3.15;;;;;;;;;;5134506;28;20231;-73
2021/11/27 02:00:18;;;;;;;3.20;2.92;;;;;;;;;;5134523;28;20210;-73
2021/11/27 02:02:47;;;;;;;3.60;3.30;;;;;;;;;;5134594;28;20284;-73
2021/11/27 02:05:14;;;;;;;4.88;3.35;;;;;;;;;;5134733;28;20288;-73
2021/11/27 02:07:41;;;;;;;5.75;4.00;;;;;;;;;;5134140;28;20285;-73
2021/11/27 02:10:10;;;;;;;3.75;3.28;;;;;;;;;;5134111;28;20742;-73
2021/11/27 02:12:38;;;;;;;3.65;3.35;;;;;;;;;;5134647;28;20281;-73
2021/11/27 02:15:05;;;;;;;3.55;3.25;;;;;;;;;;5134246;28;20631;-73
2021/11/27 02:17:33;;;;;;;3.50;3.20;;;;;;;;;;5133998;28;20283;-73
2021/11/27 02:20:01;;;;;;;3.17;2.90;;;;;;;;;;5134266;28;20285;-73
2021/11/27 02:22:33;;;;;;;3.20;3.00;;;;;;;;;;5133897;28;20235;-73
2021/11/27 02:25:01;;;;;;;3.53;3.22;;;;;;;;;;5134558;28;20574;-73
2021/11/27 02:27:28;;;;;;;3.55;3.25;;;;;;;;;;5134129;28;20245;-73
2021/11/27 02:29:55;;;;;;;3.22;2.92;;;;;;;;;;5133843;28;20285;-73
2021/11/27 02:32:23;;;;;;;3.58;2.90;;;;;;;;;;5135770;27;20265;-72
2021/11/27 02:34:50;;;;;;;4.20;3.20;;;;;;;;;;5137980;27;20206;-73
2021/11/27 02:37:17;;;;;;;2.80;2.60;;;;;;;;;;5137993;27;20613;-73
2021/11/27 02:39:46;;;;;;;3.20;3.00;;;;;;;;;;5137941;27;20613;-73
2021/11/27 02:42:13;;;;;;;3.20;3.00;;;;;;;;;;5137876;27;20297;-72
2021/11/27 02:44:41;;;;;;;3.35;3.15;;;;;;;;;;5137613;27;20764;-72
2021/11/27 02:47:09;;;;;;;3.10;2.85;;;;;;;;;;5138394;27;20285;-72
2021/11/27 02:49:36;;;;;;;2.65;2.55;;;;;;;;;;5138083;27;20190;-72
2021/11/27 02:52:05;;;;;;;3.47;3.17;;;;;;;;;;5137993;27;20285;-72
2021/11/27 02:54:32;;;;;;;3.38;3.17;;;;;;;;;;5137902;27;20204;-73
2021/11/27 02:57:01;;;;;;;2.90;2.70;;;;;;;;;;5137391;27;20285;-73
2021/11/27 02:59:29;;;;;;;3.42;3.13;;;;;;;;;;5137340;27;20708;-73
2021/11/27 03:01:57;;;;;;;3.72;3.42;;;;;;;;;;5137607;27;20281;-73
2021/11/27 03:04:25;;;;;;;3.13;2.92;;;;;;;;;;5137476;27;20221;-73
2021/11/27 03:06:52;;;;;;;3.65;3.10;;;;;;;;;;5137576;27;20280;-74
2021/11/27 03:09:21;;;;;;;2.83;2.63;;;;;;;;;;5137784;27;20601;-74
2021/11/27 03:11:49;;;;;;;3.00;2.80;;;;;;;;;;5137392;27;20236;-74
2021/11/27 03:14:18;;;;;;;2.92;2.60;;;;;;;;;;5137863;27;20228;-74
2021/11/27 03:16:45;;;;;;;2.95;2.65;;;;;;;;;;5137001;27;20298;-74
2021/11/27 03:19:12;;;;;;;2.67;2.47;;;;;;;;;;5137774;27;20280;-74
2021/11/27 03:21:39;;;;;;;2.75;2.55;;;;;;;;;;5137427;27;20541;-74
2021/11/27 03:24:07;;;;;;;2.80;2.60;;;;;;;;;;5137079;27;20742;-74
2021/11/27 03:26:34;;;;;;;2.83;2.63;;;;;;;;;;5137099;27;20394;-74
2021/11/27 03:29:02;;;;;;;3.00;2.80;;;;;;;;;;5137266;27;20282;-74
2021/11/27 03:31:30;;;;;;;3.15;2.95;;;;;;;;;;5136670;27;20279;-74
2021/11/27 03:33:58;;;;;;;2.30;2.20;;;;;;;;;;5137196;27;20274;-74
2021/11/27 03:36:25;;;;;;;2.90;2.70;;;;;;;;;;5136994;27;20203;-73
2021/11/27 03:38:53;;;;;;;3.67;2.95;;;;;;;;;;5137588;27;20200;-75
2021/11/27 03:41:20;;;;;;;2.90;2.70;;;;;;;;;;5136837;27;20282;-75
2021/11/27 03:43:47;;;;;;;3.05;2.75;;;;;;;;;;5135920;27;20762;-75
2021/11/27 03:46:15;;;;;;;3.30;3.00;;;;;;;;;;5136417;27;20232;-75
2021/11/27 03:48:44;;;;;;;2.78;2.58;;;;;;;;;;5136498;27;20232;-75
2021/11/27 03:51:12;;;;;;;2.90;2.70;;;;;;;;;;5136658;27;20288;-75
2021/11/27 03:53:40;;;;;;;3.08;2.83;;;;;;;;;;5136579;27;20252;-75
2021/11/27 03:56:09;;;;;;;2.85;2.47;;;;;;;;;;5136522;27;20280;-75
2021/11/27 03:58:36;;;;;;;3.38;2.75;;;;;;;;;;5136575;27;20223;-75
2021/11/27 04:01:06;;;;;;;2.90;2.70;;;;;;;;;;5136171;27;20281;-75
2021/11/27 04:03:34;;;;;;;2.60;2.50;;;;;;;;;;5136749;27;20279;-75
2021/11/27 04:06:02;;;;;;;2.72;2.53;;;;;;;;;;5135993;27;20284;-75
2021/11/27 04:08:30;;;;;;;2.45;2.25;;;;;;;;;;5136307;27;20283;-75
2021/11/27 04:10:57;;;;;;;2.78;2.58;;;;;;;;;;5136244;27;20286;-74
2021/11/27 04:13:25;;;;;;;2.90;2.70;;;;;;;;;;5136428;27;20301;-74
2021/11/27 04:15:52;;;;;;;2.90;2.70;;;;;;;;;;5136201;27;20284;-74
2021/11/27 04:18:19;;;;;;;2.55;2.35;;;;;;;;;;5135804;27;20279;-74
2021/11/27 04:20:47;;;;;;;2.72;2.53;;;;;;;;;;5135746;27;20646;-74
2021/11/27 04:23:15;;;;;;;2.75;2.55;;;;;;;;;;5136015;27;20283;-74
2021/11/27 04:25:43;;;;;;;3.05;2.80;;;;;;;;;;5135846;27;20315;-74
2021/11/27 04:28:10;;;;;;;3.65;3.35;;;;;;;;;;5135578;27;20280;-73
2021/11/27 04:30:38;;;;;;;2.85;2.65;;;;;;;;;;5135571;27;20229;-73
2021/11/27 04:33:05;;;;;;;2.65;2.45;;;;;;;;;;5135277;27;20323;-73
2021/11/27 04:35:32;;;;;;;2.70;2.50;;;;;;;;;;5136198;27;20292;-73
2021/11/27 04:38:00;;;;;;;3.30;2.90;;;;;;;;;;5135712;27;20288;-73
2021/11/27 04:40:30;;;;;;;2.65;2.45;;;;;;;;;;5135804;27;20283;-73
2021/11/27 04:42:58;;;;;;;3.08;2.78;;;;;;;;;;5135718;27;20272;-73
2021/11/27 04:45:26;;;;;;;2.90;2.70;;;;;;;;;;5135189;27;20307;-73
2021/11/27 04:47:53;;;;;;;3.15;2.55;;;;;;;;;;5135583;27;20232;-73
2021/11/27 04:50:21;;;;;;;2.90;2.70;;;;;;;;;;5135157;27;20284;-73
2021/11/27 04:52:48;;;;;;;2.90;2.70;;;;;;;;;;5135098;27;20296;-73
2021/11/27 04:55:16;;;;;;;3.25;3.05;;;;;;;;;;5134649;27;20279;-73
2021/11/27 04:57:45;;;;;;;3.35;3.15;;;;;;;;;;5135379;27;20273;-73
2021/11/27 05:00:15;;;;;;;3.20;3.00;;;;;;;;;;5134823;27;20285;-73
2021/11/27 05:02:42;;;;;;;3.10;2.90;;;;;;;;;;5134839;27;20285;-73
2021/11/27 05:05:10;;;;;;;3.30;3.10;;;;;;;;;;5135337;27;20248;-73
2021/11/27 05:07:37;;;;;;;3.20;2.90;;;;;;;;;;5134849;27;20285;-73
2021/11/27 05:10:05;;;;;;;3.30;3.10;;;;;;;;;;5135320;27;20296;-73
2021/11/27 05:12:32;;;;;;;3.25;3.00;;;;;;;;;;5135116;27;20193;-74
2021/11/27 05:15:01;;;;;;;3.53;3.25;;;;;;;;;;5134759;27;20742;-73
2021/11/27 05:17:28;;;;;;;3.53;3.30;;;;;;;;;;5134996;27;20233;-73
2021/11/27 05:19:55;;;;;;;3.05;2.85;;;;;;;;;;5134939;27;20348;-74
2021/11/27 05:22:22;;;;;;;3.72;3.42;;;;;;;;;;5134576;27;20284;-75
2021/11/27 05:24:50;;;;;;;4.57;3.75;;;;;;;;;;5134479;27;20761;-75
2021/11/27 05:27:18;;;;;;;4.28;3.97;;;;;;;;;;5134830;27;20206;-73
2021/11/27 05:29:46;;;;;;;4.03;3.53;;;;;;;;;;5135172;27;20630;-73
2021/11/27 05:32:23;;;;;;;4.40;4.00;;;;;;;;;;5133175;27;20315;-73
2021/11/27 05:34:51;;;;;;;3.83;3.55;;;;;;;;;;5135122;27;20186;-73
2021/11/27 05:37:18;;;;;;;4.60;4.30;;;;;;;;;;5134396;27;20241;-73
2021/11/27 05:39:46;;;;;;;4.10;3.80;;;;;;;;;;5134733;27;20293;-73
2021/11/27 05:42:14;;;;;;;4.30;3.92;;;;;;;;;;5134384;27;20278;-73
2021/11/27 05:44:42;;;;;;;4.75;4.30;;;;;;;;;;5134573;27;20226;-73
2021/11/27 05:47:09;;;;;;;4.68;4.28;;;;;;;;;;5134717;28;20252;-73
2021/11/27 05:49:38;;;;;;;5.32;4.82;;;;;;;;;;5134627;28;20371;-73
2021/11/27 05:52:06;;;;;;;4.93;4.43;;;;;;;;;;5134295;28;20287;-73
2021/11/27 05:54:33;;;;;;;4.45;4.05;;;;;;;;;;5134542;28;20229;-73
2021/11/27 05:57:00;;;;;;;4.60;4.20;;;;;;;;;;5134887;28;20591;-73
2021/11/27 05:59:27;;;;;;;4.97;4.47;;;;;;;;;;5134087;28;20307;-73
2021/11/27 06:01:54;;;;;;;5.80;5.30;;;;;;;;;;5134460;28;20299;-73
2021/11/27 06:04:22;;;;;;;5.43;4.93;;;;;;;;;;5134346;28;20306;-73
2021/11/27 06:06:51;;;;;;;5.38;4.88;;;;;;;;;;5137718;27;20194;-73
2021/11/27 06:09:18;;;;;;;6.03;5.43;;;;;;;;;;5138880;27;20287;-72
2021/11/27 06:11:46;;;;;;;7.70;6.28;;;;;;;;;;5138655;27;20307;-73
2021/11/27 06:14:13;;;;;;;8.88;6.05;;;;;;;;;;5138185;27;20196;-73
2021/11/27 06:16:40;;;;;;;7.30;5.95;;;;;;;;;;5138651;27;20229;-72
2021/11/27 06:19:07;;;;;;;7.72;7.03;;;;;;;;;;5138498;27;20276;-73
2021/11/27 06:21:35;;;;;;;7.53;6.72;;;;;;;;;;5138112;27;20647;-73
2021/11/27 06:24:04;;;;;;;8.82;7.72;;;;;;;;;;5137942;27;20283;-73
2021/11/27 06:26:31;;;;;;;9.00;7.25;;;;;;;;;;5138154;27;20315;-73
2021/11/27 06:28:59;;;;;;;8.35;7.50;;;;;;;;;;5138111;27;20193;-73
2021/11/27 06:31:26;;;;;;;9.18;8.25;;;;;;;;;;5137725;27;20219;-72
2021/11/27 06:33:53;;;;;;;10.43;9.43;;;;;;;;;;5137806;27;20272;-73
2021/11/27 06:36:20;;;;;;;16.63;9.73;;;;;;;;;;5137997;27;20229;-73
2021/11/27 06:38:47;;;;;;;14.90;12.45;;;;;;;;;;5137997;27;20284;-73
2021/11/27 06:41:17;;;;;;;20.27;14.55;;;;;;;;;;5138387;27;20275;-73
2021/11/27 06:43:45;;;;;;;18.67;13.00;;;;;;;;;;5137843;27;20188;-73
2021/11/27 06:46:12;;;;;;;22.65;15.90;;;;;;;;;;5138000;27;20314;-73
2021/11/27 06:48:40;;;;;;;28.73;19.60;;;;;;;;;;5137782;27;20195;-73
2021/11/27 06:51:07;;;;;;;29.80;18.90;;;;;;;;;;5137425;27;20287;-73
2021/11/27 06:53:34;;;;;;;36.67;21.55;;;;;;;;;;5137683;27;20203;-72
2021/11/27 06:56:03;;;;;;;40.00;25.05;;;;;;;;;;5138265;27;20615;-73
2021/11/27 06:58:32;;;;;;;37.45;22.58;;;;;;;;;;5137623;27;20235;-73
2021/11/27 07:00:59;;;;;;;28.60;17.80;;;;;;;;;;5137116;27;20273;-73
2021/11/27 07:03:26;;;;;;;33.08;20.33;;;;;;;;;;5137781;27;20287;-70
2021/11/27 07:05:53;;;;;;;28.08;17.83;;;;;;;;;;5137254;27;20640;-70
2021/11/27 07:08:20;;;;;;;30.73;17.75;;;;;;;;;;5137536;27;20646;-70
2021/11/27 07:10:50;;;;;;;20.67;12.75;;;;;;;;;;5137118;27;20236;-70
2021/11/27 07:13:18;;;;;;;16.35;10.65;;;;;;;;;;5137470;27;20196;-69
2021/11/27 07:15:47;;;;;;;14.88;9.40;;;;;;;;;;5136972;27;20650;-69
2021/11/27 07:18:14;;;;;;;16.88;9.10;;;;;;;;;;5135992;27;20196;-70
2021/11/27 07:20:41;;;;;;;12.57;7.07;;;;;;;;;;5137189;27;20620;-69
2021/11/27 07:23:10;;;;;;;13.07;7.20;;;;;;;;;;5137583;27;20220;-70
2021/11/27 07:25:37;;;;;;;9.95;6.05;;;;;;;;;;5137076;27;20219;-69
2021/11/27 07:28:05;;;;;;;9.48;4.30;;;;;;;;;;5137055;27;20292;-69
2021/11/27 07:30:32;;;;;;;8.00;5.30;;;;;;;;;;5136587;27;20279;-70
2021/11/27 07:33:01;;;;;;;8.82;5.78;;;;;;;;;;5136283;27;20257;-70
2021/11/27 07:35:28;;;;;;;9.30;4.80;;;;;;;;;;5136904;27;20292;-69
2021/11/27 07:37:55;;;;;;;9.70;5.63;;;;;;;;;;5136624;27;20253;-72
2021/11/27 07:40:23;;;;;;;10.57;5.63;;;;;;;;;;5136724;27;20227;-75
2021/11/27 07:42:52;;;;;;;8.35;5.00;;;;;;;;;;5136476;27;20279;-72
2021/11/27 07:45:22;;;;;;;10.27;4.68;;;;;;;;;;5136996;27;20227;-74
2021/11/27 07:47:58;;;;;;;7.90;4.70;;;;;;;;;;5136763;27;20320;-74
2021/11/27 07:50:26;;;;;;;10.40;5.88;;;;;;;;;;5136468;27;20760;-74
2021/11/27 07:52:57;;;;;;;8.40;5.80;;;;;;;;;;5136346;27;20287;-75
2021/11/27 07:55:25;;;;;;;10.55;6.20;;;;;;;;;;5136323;27;20195;-74
2021/11/27 07:57:53;;;;;;;11.63;6.90;;;;;;;;;;5136443;27;20220;-74
2021/11/27 08:00:20;;;;;;;8.88;6.25;;;;;;;;;;5136054;27;20280;-75
2021/11/27 08:02:47;;;;;;;11.27;6.70;;;;;;;;;;5136068;27;20291;-73
2021/11/27 08:05:14;;;;;;;9.32;6.18;;;;;;;;;;5136665;27;20303;-74
2021/11/27 08:07:45;;;;;;;10.68;6.55;;;;;;;;;;5138117;27;20234;-73
2021/11/27 08:10:14;;;;;;;19.63;11.15;;;;;;;;;;5137141;27;20185;-73
2021/11/27 08:12:44;;;;;;;12.07;6.70;;;;;;;;;;5136119;27;20293;-73
2021/11/27 08:15:11;;;;;;;10.85;6.35;;;;;;;;;;5135874;27;20238;-74
2021/11/27 08:17:39;;;;;;;7.85;5.18;;;;;;;;;;5136771;27;20196;-73
2021/11/27 08:20:08;;;;;;;10.32;6.85;;;;;;;;;;5136305;27;20192;-74
2021/11/27 08:22:47;;;;;;;7.30;4.60;;;;;;;;;;5136170;27;20247;-73
2021/11/27 08:25:21;;;;;;;5.95;4.70;;;;;;;;;;5135901;27;20208;-73
2021/11/27 08:27:48;;;;;;;9.95;6.70;;;;;;;;;;5135617;27;20186;-74
2021/11/27 08:30:16;;;;;;;9.48;6.53;;;;;;;;;;5136639;27;20299;-74
2021/11/27 08:32:48;;;;;;;9.50;6.60;;;;;;;;;;5135772;27;20256;-74
2021/11/27 08:35:15;;;;;;;9.35;5.35;;;;;;;;;;5135454;27;20681;-73
2021/11/27 08:37:43;;;;;;;8.35;6.00;;;;;;;;;;5135681;27;20284;-75
2021/11/27 08:40:13;;;;;;;7.22;6.32;;;;;;;;;;5135638;27;20190;-75
2021/11/27 08:42:42;;;;;;;11.80;7.45;;;;;;;;;;5135260;27;20715;-74
2021/11/27 08:45:09;;;;;;;10.82;6.25;;;;;;;;;;5135169;27;20199;-74
2021/11/27 08:47:37;;;;;;;10.38;8.13;;;;;;;;;;5135086;27;20235;-75
2021/11/27 08:50:04;;;;;;;14.15;8.73;;;;;;;;;;5135399;27;20275;-74
2021/11/27 08:52:31;;;;;;;13.82;8.35;;;;;;;;;;5135105;27;20235;-74
2021/11/27 08:54:59;;;;;;;14.05;8.73;;;;;;;;;;5135843;27;20283;-74
2021/11/27 08:57:27;;;;;;;8.30;7.22;;;;;;;;;;5135310;27;20615;-73
2021/11/27 08:59:55;;;;;;;10.68;8.88;;;;;;;;;;5134947;27;20241;-74
2021/11/27 09:02:22;;;;;;;12.98;9.52;;;;;;;;;;5135310;27;20565;-74
2021/11/27 09:04:49;;;;;;;12.68;9.48;;;;;;;;;;5136061;27;20223;-74
2021/11/27 09:07:16;;;;;;;17.23;10.65;;;;;;;;;;5135047;27;20262;-74
2021/11/27 09:09:45;;;;;;;19.83;13.40;;;;;;;;;;5135278;27;20288;-74
2021/11/27 09:12:13;;;;;;;16.92;12.30;;;;;;;;;;5134870;27;20215;-74
2021/11/27 09:14:41;;;;;;;18.08;11.60;;;;;;;;;;5134896;27;20192;-71
2021/11/27 09:17:09;;;;;;;20.85;13.60;;;;;;;;;;5134596;27;20291;-74
2021/11/27 09:19:36;;;;;;;23.77;14.68;;;;;;;;;;5135104;27;20271;-74
2021/11/27 09:22:04;;;;;;;19.23;12.80;;;;;;;;;;5134873;27;20279;-74
2021/11/27 09:24:32;;;;;;;21.00;13.70;;;;;;;;;;5134544;27;20192;-74
2021/11/27 09:26:59;;;;;;;23.50;14.30;;;;;;;;;;5134356;27;20208;-74
2021/11/27 09:29:26;;;;;;;27.45;15.43;;;;;;;;;;5134920;27;20603;-74
2021/11/27 09:31:55;;;;;;;18.58;10.57;;;;;;;;;;5134484;27;20311;-74
2021/11/27 09:34:22;;;;;;;29.10;13.85;;;;;;;;;;5134353;27;20640;-73
2021/11/27 09:36:50;;;;;;;24.20;15.18;;;;;;;;;;5134350;27;20196;-74
2021/11/27 09:39:18;;;;;;;25.10;14.40;;;;;;;;;;5134712;27;20298;-74
2021/11/27 09:41:46;;;;;;;30.35;15.65;;;;;;;;;;5134508;27;20193;-73
2021/11/27 09:44:17;;;;;;;25.30;15.40;;;;;;;;;;5134581;27;20193;-72
2021/11/27 09:46:45;;;;;;;25.48;15.77;;;;;;;;;;5134245;27;20680;-74
2021/11/27 09:49:18;;;;;;;24.38;15.02;;;;;;;;;;5134131;28;20240;-74
2021/11/27 09:51:45;;;;;;;24.98;14.88;;;;;;;;;;5134212;28;20187;-75
2021/11/27 09:54:16;;;;;;;25.15;15.88;;;;;;;;;;5134377;28;20721;-74
2021/11/27 09:56:45;;;;;;;35.28;18.92;;;;;;;;;;5135010;28;20280;-75
2021/11/27 09:59:12;;;;;;;31.67;17.50;;;;;;;;;;5134168;28;20241;-74
2021/11/27 10:01:44;;;;;;;34.15;20.70;;;;;;;;;;5134258;28;20282;-74
2021/11/27 10:04:12;;;;;;;35.60;18.70;;;;;;;;;;5134207;28;20195;-74
2021/11/27 10:06:42;;;;;;;33.35;15.68;;;;;;;;;;5134551;28;20310;-74
2021/11/27 10:09:12;;;;;;;33.20;20.70;;;;;;;;;;5134566;28;20272;-74
2021/11/27 10:11:39;;;;;;;29.75;17.23;;;;;;;;;;5134032;28;20197;-74
2021/11/27 10:14:07;;;;;;;31.42;15.13;;;;;;;;;;5134280;28;20232;-75
2021/11/27 10:16:37;;;;;;;35.40;17.70;;;;;;;;;;5134305;28;20237;-74
2021/11/27 10:19:08;;;;;;;30.60;18.30;;;;;;;;;;5134273;28;20227;-75
2021/11/27 10:21:36;;;;;;;29.92;18.23;;;;;;;;;;5134361;28;20235;-74
2021/11/27 10:24:16;;;;;;;29.40;18.48;;;;;;;;;;5134533;28;20288;-73
2021/11/27 10:26:45;;;;;;;34.08;20.67;;;;;;;;;;5133823;28;20268;-74
2021/11/27 10:29:17;;;;;;;37.15;19.42;;;;;;;;;;5134360;28;20555;-74
2021/11/27 10:31:44;;;;;;;34.33;20.35;;;;;;;;;;5133778;28;20226;-73
2021/11/27 10:34:16;;;;;;;25.30;17.60;;;;;;;;;;5134376;28;20268;-74
2021/11/27 10:36:43;;;;;;;30.70;17.08;;;;;;;;;;5134252;28;20614;-74
2021/11/27 10:39:13;;;;;;;29.13;18.30;;;;;;;;;;5134067;28;20279;-74
2021/11/27 10:41:55;;;;;;;36.10;17.95;;;;;;;;;;5134172;28;20194;-73
2021/11/27 10:44:26;;;;;;;25.45;18.25;;;;;;;;;;5134242;28;20214;-74
2021/11/27 10:46:53;;;;;;;27.02;18.02;;;;;;;;;;5133555;28;20241;-73
2021/11/27 10:49:26;;;;;;;24.35;16.63;;;;;;;;;;5133585;28;20201;-74
2021/11/27 10:52:04;;;;;;;27.48;16.65;;;;;;;;;;5134881;27;20182;-74
2021/11/27 10:54:44;;;;;;;27.20;16.75;;;;;;;;;;5137406;27;20661;-74
2021/11/27 10:57:27;;;;;;;27.38;17.70;;;;;;;;;;5137417;27;20182;-74
2021/11/27 10:59:54;;;;;;;32.65;19.50;;;;;;;;;;5137624;27;20276;-74
2021/11/27 11:02:23;;;;;;;33.97;20.35;;;;;;;;;;5137895;27;20197;-74
2021/11/27 11:05:01;;;;;;;31.63;21.02;;;;;;;;;;5137271;27;20651;-74
2021/11/27 11:07:30;;;;;;;39.85;22.98;;;;;;;;;;5137934;27;20326;-74
2021/11/27 11:10:04;;;;;;;36.28;20.48;;;;;;;;;;5137612;27;20202;-74
2021/11/27 11:12:35;;;;;;;41.10;23.25;;;;;;;;;;5137614;27;20238;-74
2021/11/27 11:15:10;;;;;;;39.35;23.85;;;;;;;;;;5137324;27;20288;-74
2021/11/27 11:17:38;;;;;;;35.95;18.65;;;;;;;;;;5136822;27;20200;-74
2021/11/27 11:20:15;;;;;;;37.25;24.35;;;;;;;;;;5137199;27;20234;-74
2021/11/27 11:22:56;;;;;;;38.08;22.60;;;;;;;;;;5137163;27;20616;-73
2021/11/27 11:25:25;;;;;;;41.28;24.67;;;;;;;;;;5136844;27;20275;-74
2021/11/27 11:27:53;;;;;;;43.95;26.08;;;;;;;;;;5137262;27;20228;-74
2021/11/27 11:30:22;;;;;;;42.08;22.40;;;;;;;;;;5136761;27;20737;-73
2021/11/27 11:32:49;;;;;;;43.90;25.00;;;;;;;;;;5137319;27;20285;-74
2021/11/27 11:35:17;;;;;;;42.10;24.90;;;;;;;;;;5137276;27;20193;-73
2021/11/27 11:37:44;;;;;;;43.67;24.98;;;;;;;;;;5136876;27;20290;-74
2021/11/27 11:40:12;;;;;;;39.47;25.38;;;;;;;;;;5137296;27;20302;-73
2021/11/27 11:42:41;;;;;;;45.30;26.48;;;;;;;;;;5136222;27;20230;-75
2021/11/27 11:45:08;;;;;;;38.72;23.25;;;;;;;;;;5135982;27;20652;-74
2021/11/27 11:47:36;;;;;;;42.88;23.38;;;;;;;;;;5135791;27;20241;-74
2021/11/27 11:50:06;;;;;;;36.08;22.17;;;;;;;;;;5136358;27;20233;-74
2021/11/27 11:52:36;;;;;;;48.58;24.98;;;;;;;;;;5136278;27;20231;-73
2021/11/27 11:55:06;;;;;;;46.13;26.33;;;;;;;;;;5135959;27;20186;-75
2021/11/27 11:57:46;;;;;;;46.28;23.95;;;;;;;;;;5136156;27;20599;-75
2021/11/27 12:00:23;;;;;;;39.58;24.88;;;;;;;;;;5136579;27;20179;-74
2021/11/27 12:02:50;;;;;;;45.92;25.25;;;;;;;;;;5135859;27;20239;-74
2021/11/27 12:05:19;;;;;;;40.17;22.42;;;;;;;;;;5135522;27;20238;-73
2021/11/27 12:07:47;;;;;;;50.03;25.35;;;;;;;;;;5134854;27;20229;-74
2021/11/27 12:10:15;;;;;;;40.38;25.40;;;;;;;;;;5135640;27;20197;-74
2021/11/27 12:12:42;;;;;;;51.42;27.48;;;;;;;;;;5135848;27;20758;-74
2021/11/27 12:15:11;;;;;;;48.38;27.77;;;;;;;;;;5136259;27;20199;-74
2021/11/27 12:17:57;;;;;;;47.13;28.60;;;;;;;;;;5136140;27;20229;-74
2021/11/27 12:20:40;;;;;;;54.28;30.35;;;;;;;;;;5135521;27;20199;-74
2021/11/27 12:23:22;;;;;;;44.40;26.08;;;;;;;;;;5135581;27;20180;-74
2021/11/27 12:26:15;;;;;;;49.15;26.42;;;;;;;;;;5136095;27;20182;-74
2021/11/27 12:28:43;;;;;;;47.92;25.40;;;;;;;;;;5135638;27;20181;-73
2021/11/27 12:31:11;;;;;;;42.85;25.85;;;;;;;;;;5136168;27;20249;-73
2021/11/27 12:33:50;;;;;;;43.03;25.92;;;;;;;;;;5135555;27;20264;-73
2021/11/27 12:36:36;;;;;;;41.70;23.92;;;;;;;;;;5135235;27;20189;-73
2021/11/27 12:39:05;;;;;;;54.28;28.25;;;;;;;;;;5135126;27;20251;-73
2021/11/27 12:41:35;;;;;;;38.75;23.55;;;;;;;;;;5135134;27;20281;-74
2021/11/27 12:44:12;;;;;;;34.30;22.05;;;;;;;;;;5135112;27;20650;-73
2021/11/27 12:46:41;;;;;;;36.67;21.40;;;;;;;;;;5135144;27;20221;-73
2021/11/27 12:49:08;;;;;;;36.65;20.52;;;;;;;;;;5135193;27;20225;-74
2021/11/27 12:51:36;;;;;;;38.88;22.20;;;;;;;;;;5135455;27;20191;-73
2021/11/27 12:54:36;;;;;;;34.33;20.38;;;;;;;;;;5135101;27;20286;-74
2021/11/27 12:57:13;;;;;;;34.83;19.70;;;;;;;;;;5032009;28;20285;-73
2021/11/27 12:59:44;;;;;;;33.67;19.88;;;;;;;;;;5031856;28;20233;-74
2021/11/27 13:02:14;;;;;;;24.15;15.98;;;;;;;;;;5087989;27;20236;-73
2021/11/27 13:04:41;;;;;;;23.40;15.48;;;;;;;;;;5134894;27;20201;-73
2021/11/27 13:07:09;;;;;;;26.13;15.43;;;;;;;;;;5135026;27;20431;-73
2021/11/27 13:09:36;;;;;;;24.67;15.38;;;;;;;;;;5134856;27;20235;-74
2021/11/27 13:12:11;;;;;;;22.05;15.07;;;;;;;;;;5135056;27;20280;-73
2021/11/27 13:14:39;;;;;;;25.25;14.27;;;;;;;;;;5135590;27;20191;-74
2021/11/27 13:17:07;;;;;;;21.67;13.48;;;;;;;;;;5134584;27;20204;-74
2021/11/27 13:19:36;;;;;;;15.50;11.05;;;;;;;;;;5134430;27;20616;-73
2021/11/27 13:22:07;;;;;;;25.38;13.73;;;;;;;;;;5134522;27;20280;-73
2021/11/27 13:24:36;;;;;;;29.52;14.05;;;;;;;;;;5134797;27;20283;-73
2021/11/27 13:27:04;;;;;;;18.48;12.35;;;;;;;;;;5135016;27;20217;-73
2021/11/27 13:29:31;;;;;;;17.15;11.57;;;;;;;;;;5134817;27;20197;-73
2021/11/27 13:31:58;;;;;;;15.77;11.15;;;;;;;;;;5134676;27;20261;-74
2021/11/27 13:34:26;;;;;;;16.00;11.65;;;;;;;;;;5134509;27;20272;-73
2021/11/27 13:36:57;;;;;;;24.40;12.15;;;;;;;;;;5134728;27;20203;-73
2021/11/27 13:39:25;;;;;;;17.20;10.57;;;;;;;;;;5134912;27;20220;-73
2021/11/27 13:42:10;;;;;;;17.55;10.23;;;;;;;;;;5134794;27;20280;-74
2021/11/27 13:44:39;;;;;;;12.73;9.60;;;;;;;;;;5134576;27;20584;-74
2021/11/27 13:47:07;;;;;;;19.30;11.85;;;;;;;;;;5134249;27;20220;-73
2021/11/27 13:49:36;;;;;;;16.60;8.85;;;;;;;;;;5134447;27;20283;-73
2021/11/27 13:52:05;;;;;;;9.38;7.22;;;;;;;;;;5134477;28;20233;-73
2021/11/27 13:54:33;;;;;;;22.95;11.98;;;;;;;;;;5134541;28;20229;-72
2021/11/27 13:57:01;;;;;;;24.33;9.98;;;;;;;;;;5134510;28;20237;-72
2021/11/27 13:59:29;;;;;;;15.32;8.88;;;;;;;;;;5134603;28;20245;-73
2021/11/27 14:02:03;;;;;;;18.05;9.77;;;;;;;;;;5134268;28;20285;-72
2021/11/27 14:04:30;;;;;;;22.83;8.57;;;;;;;;;;5134463;28;20252;-73
2021/11/27 14:07:01;;;;;;;17.77;8.13;;;;;;;;;;5134088;28;20299;-74
2021/11/27 14:09:48;;;;;;;16.65;7.10;;;;;;;;;;5135160;28;20235;-72
2021/11/27 14:12:35;;;;;;;15.50;7.20;;;;;;;;;;5134863;28;20192;-74
2021/11/27 14:15:04;;;;;;;21.02;8.45;;;;;;;;;;5134118;28;20669;-73
2021/11/27 14:17:31;;;;;;;14.43;6.43;;;;;;;;;;5133880;28;20201;-72
2021/11/27 14:20:09;;;;;;;19.25;6.30;;;;;;;;;;5134590;28;20284;-72
2021/11/27 14:22:37;;;;;;;12.27;7.68;;;;;;;;;;5134279;28;20190;-72
2021/11/27 14:25:12;;;;;;;15.65;7.93;;;;;;;;;;5133797;28;20246;-72
2021/11/27 14:27:48;;;;;;;15.57;7.32;;;;;;;;;;5136281;27;20306;-72
2021/11/27 14:30:19;;;;;;;12.88;7.75;;;;;;;;;;5138913;27;20265;-72
2021/11/27 14:32:47;;;;;;;18.10;7.95;;;;;;;;;;5137912;27;20224;-73
2021/11/27 14:35:31;;;;;;;15.80;8.43;;;;;;;;;;5137846;27;20201;-73
2021/11/27 14:37:59;;;;;;;14.13;9.32;;;;;;;;;;5137701;27;20240;-72
2021/11/27 14:40:27;;;;;;;14.45;9.85;;;;;;;;;;5138361;27;20278;-73
2021/11/27 14:43:04;;;;;;;32.05;14.07;;;;;;;;;;5137984;27;20306;-73